createdAt,value
2018-05-03T00:02:35.989Z,51.60
2018-05-03T00:07:39.234Z,53.70
2018-05-03T00:12:42.491Z,54.00
2018-05-03T00:17:45.763Z,56.90
2018-05-03T00:22:49.011Z,56.00
2018-05-03T00:27:52.276Z,55.30
2018-05-03T00:32:55.552Z,54.10
2018-05-03T00:37:58.799Z,57.80
2018-05-03T00:43:02.073Z,56.20
2018-05-03T00:48:05.613Z,60.30
2018-05-03T00:53:08.879Z,60.20
2018-05-03T00:58:12.155Z,60.90
2018-05-03T01:03:15.439Z,58.60
2018-05-03T01:08:18.703Z,62.40
2018-05-03T01:13:21.969Z,62.90
2018-05-03T01:18:25.233Z,62.50
2018-05-03T01:23:28.511Z,65.10
2018-05-03T01:28:31.767Z,63.30
2018-05-03T01:33:35.068Z,59.70
2018-05-03T01:38:39.096Z,60.50
2018-05-03T01:43:42.379Z,60.40
2018-05-03T01:48:45.667Z,63.20
2018-05-03T01:53:48.917Z,60.70
2018-05-03T01:58:52.953Z,61.60
2018-05-03T02:03:56.235Z,62.00
2018-05-03T02:08:59.500Z,60.90
2018-05-03T02:14:02.778Z,65.20
2018-05-03T02:19:06.035Z,60.30
2018-05-03T02:24:09.303Z,60.90
2018-05-03T02:29:12.571Z,62.50
2018-05-03T02:34:15.837Z,67.90
2018-05-03T02:39:19.111Z,62.10
2018-05-03T02:44:22.391Z,61.20
2018-05-03T02:49:25.634Z,63.70
2018-05-03T02:54:28.891Z,63.10
2018-05-03T02:59:44.002Z,61.50
2018-05-03T03:05:04.956Z,61.90
2018-05-03T03:10:36.194Z,60.50
2018-05-03T03:15:57.051Z,60.40
2018-05-03T03:21:18.124Z,59.70
2018-05-03T03:26:39.105Z,60.80
2018-05-03T03:32:13.855Z,60.60
2018-05-03T03:37:29.047Z,60.10
2018-05-03T03:48:15.384Z,60.60
2018-05-03T03:53:18.646Z,60.70
2018-05-03T03:58:21.899Z,61.70
2018-05-03T04:03:25.159Z,64.20
2018-05-03T04:08:28.477Z,61.40
2018-05-03T04:13:32.490Z,60.60
2018-05-03T04:18:47.746Z,60.50
2018-05-03T04:24:13.877Z,61.40
2018-05-03T04:29:17.097Z,60.90
2018-05-03T04:34:20.360Z,62.10
2018-05-03T04:39:24.397Z,62.40
2018-05-03T04:44:29.213Z,61.90
2018-05-03T04:49:32.468Z,61.80
2018-05-03T04:54:35.748Z,61.30
2018-05-03T04:59:39.048Z,61.30
2018-05-03T05:04:42.357Z,61.20
2018-05-03T05:09:45.608Z,62.70
2018-05-03T05:14:48.878Z,61.20
2018-05-03T05:19:52.124Z,61.20
2018-05-03T05:24:55.378Z,60.70
2018-05-03T05:29:58.635Z,60.00
2018-05-03T05:35:01.906Z,59.10
2018-05-03T05:40:05.183Z,59.20
2018-05-03T05:45:08.446Z,59.00
2018-05-03T05:50:11.871Z,58.80
2018-05-03T05:55:15.147Z,59.20
2018-05-03T06:00:18.419Z,57.80
2018-05-03T06:05:21.705Z,56.90
2018-05-03T06:10:25.110Z,56.60
2018-05-03T06:15:28.319Z,55.60
2018-05-03T06:20:31.571Z,54.80
2018-05-03T06:25:34.862Z,54.50
2018-05-03T06:30:38.224Z,54.80
2018-05-03T06:35:41.483Z,54.30
2018-05-03T06:40:44.735Z,54.30
2018-05-03T06:45:48.055Z,52.90
2018-05-03T06:50:51.373Z,51.80
2018-05-03T06:55:54.767Z,52.40
2018-05-03T07:00:58.844Z,51.80
2018-05-03T07:06:02.130Z,50.80
2018-05-03T07:11:05.433Z,50.70
2018-05-03T07:16:08.776Z,50.10
2018-05-03T07:21:12.052Z,50.90
2018-05-03T07:26:15.383Z,49.80
2018-05-03T07:31:19.618Z,47.70
2018-05-03T07:36:22.938Z,47.60
2018-05-03T07:41:26.289Z,47.70
2018-05-03T07:46:30.348Z,46.60
2018-05-03T07:51:33.632Z,48.00
2018-05-03T07:56:37.007Z,46.30
2018-05-03T08:01:40.977Z,44.50
2018-05-03T08:06:44.260Z,44.40
2018-05-03T08:11:47.552Z,43.90
2018-05-03T08:16:50.877Z,44.10
2018-05-03T08:21:54.151Z,45.30
2018-05-03T08:26:57.469Z,44.40
2018-05-03T08:32:00.731Z,42.90
2018-05-03T08:37:03.995Z,39.90
2018-05-03T08:42:08.045Z,43.40
2018-05-03T08:47:12.231Z,43.20
2018-05-03T08:52:15.468Z,43.10
2018-05-03T08:57:19.644Z,41.90
2018-05-03T09:02:22.907Z,41.90
2018-05-03T09:07:26.178Z,38.20
2018-05-03T09:12:29.441Z,36.30
2018-05-03T09:17:32.792Z,38.30
2018-05-03T09:22:36.072Z,38.10
2018-05-03T09:27:39.328Z,37.20
2018-05-03T09:32:42.610Z,34.90
2018-05-03T09:37:45.855Z,34.30
2018-05-03T09:42:49.172Z,34.30
2018-05-03T09:47:52.429Z,34.90
2018-05-03T09:52:55.743Z,33.60
2018-05-03T09:57:59.013Z,33.20
2018-05-03T10:03:03.131Z,30.30
2018-05-03T10:08:07.163Z,32.00
2018-05-03T10:13:10.598Z,31.90
2018-05-03T10:18:13.818Z,31.30
2018-05-03T10:23:17.076Z,28.00
2018-05-03T10:28:20.337Z,26.20
2018-05-03T10:33:23.600Z,28.80
2018-05-03T10:38:27.632Z,28.30
2018-05-03T10:43:30.899Z,28.20
2018-05-03T10:48:34.165Z,27.90
2018-05-03T10:53:37.447Z,28.80
2018-05-03T10:58:40.709Z,28.50
2018-05-03T11:03:43.968Z,28.40
2018-05-03T11:08:48.004Z,27.40
2018-05-03T11:13:51.287Z,27.30
2018-05-03T11:18:54.571Z,28.00
2018-05-03T11:23:57.839Z,27.30
2018-05-03T11:29:01.855Z,26.30
2018-05-03T11:34:05.882Z,26.20
2018-05-03T11:39:09.147Z,26.10
2018-05-03T11:44:12.429Z,25.80
2018-05-03T11:49:15.700Z,25.70
2018-05-03T11:54:19.731Z,25.70
2018-05-03T11:59:23.007Z,25.60
2018-05-03T12:04:26.243Z,26.90
2018-05-03T12:09:30.124Z,25.30
2018-05-03T12:14:33.406Z,27.10
2018-05-03T12:19:36.658Z,26.70
2018-05-03T12:24:39.919Z,25.10
2018-05-03T12:29:43.171Z,24.90
2018-05-03T12:34:46.427Z,26.40
2018-05-03T12:39:49.686Z,25.60
2018-05-03T12:44:52.936Z,25.90
2018-05-03T12:49:56.193Z,26.00
2018-05-03T12:54:59.448Z,25.30
2018-05-03T13:00:02.704Z,25.90
2018-05-03T13:05:05.990Z,24.70
2018-05-03T13:10:09.645Z,25.40
2018-05-03T13:15:13.684Z,25.40
2018-05-03T13:20:17.040Z,24.90
2018-05-03T13:25:21.513Z,23.90
2018-05-03T13:30:24.820Z,23.80
2018-05-03T13:35:28.115Z,23.90
2018-05-03T13:40:31.390Z,22.40
2018-05-03T13:45:34.639Z,25.60
2018-05-03T13:50:37.912Z,23.60
2018-05-03T13:55:41.238Z,22.70
2018-05-03T14:00:44.552Z,22.40
2018-05-03T14:05:48.550Z,22.40
2018-05-03T14:10:51.830Z,22.90
2018-05-03T14:15:55.128Z,22.90
2018-05-03T14:20:58.502Z,22.40
2018-05-03T14:26:01.702Z,23.10
2018-05-03T14:31:04.967Z,22.20
2018-05-03T14:36:08.261Z,24.70
2018-05-03T14:41:11.526Z,26.20
2018-05-03T14:46:14.801Z,26.60
2018-05-03T14:51:18.064Z,25.80
2018-05-03T14:56:21.339Z,26.30
2018-05-03T15:01:24.620Z,25.90
2018-05-03T15:06:27.948Z,26.50
2018-05-03T15:11:31.136Z,27.20
2018-05-03T15:16:34.537Z,26.20
2018-05-03T15:21:38.627Z,26.50
2018-05-03T15:26:41.951Z,27.20
2018-05-03T15:31:45.239Z,28.20
2018-05-03T15:36:48.512Z,28.40
2018-05-03T15:41:51.791Z,27.70
2018-05-03T15:46:55.064Z,28.30
2018-05-03T15:51:58.340Z,28.80
2018-05-03T15:57:01.640Z,29.30
2018-05-03T16:02:05.671Z,29.20
2018-05-03T16:07:09.691Z,29.30
2018-05-03T16:12:12.971Z,29.20
2018-05-03T16:17:16.425Z,29.50
2018-05-03T16:22:19.697Z,29.50
2018-05-03T16:27:22.962Z,29.30
2018-05-03T16:32:26.231Z,27.70
2018-05-03T16:37:29.487Z,29.30
2018-05-03T16:42:33.668Z,30.50
2018-05-03T16:47:37.028Z,31.00
2018-05-03T16:52:40.295Z,30.80
2018-05-03T16:57:43.566Z,30.70
2018-05-03T17:02:46.827Z,31.70
2018-05-03T17:07:50.137Z,31.60
2018-05-03T17:12:53.433Z,30.90
2018-05-03T17:17:56.727Z,34.60
2018-05-03T17:22:59.998Z,33.60
2018-05-03T17:28:04.068Z,35.70
2018-05-03T17:33:07.367Z,35.70
2018-05-03T17:38:10.669Z,33.90
2018-05-03T17:43:13.977Z,34.20
2018-05-03T17:48:17.276Z,34.50
2018-05-03T17:53:20.559Z,34.50
2018-05-03T17:58:23.947Z,34.70
2018-05-03T18:03:27.204Z,35.10
2018-05-03T18:08:30.473Z,35.00
2018-05-03T18:13:33.736Z,34.70
2018-05-03T18:18:37.166Z,35.30
2018-05-03T18:23:40.447Z,35.40
2018-05-03T18:28:43.721Z,36.40
2018-05-03T18:33:47.785Z,37.10
2018-05-03T18:38:51.049Z,37.80
2018-05-03T18:43:55.135Z,37.90
2018-05-03T18:48:58.420Z,38.10
2018-05-03T18:54:01.677Z,38.50
2018-05-03T18:59:05.729Z,39.10
2018-05-03T19:04:08.992Z,39.10
2018-05-03T19:09:12.258Z,39.50
2018-05-03T19:14:15.513Z,40.00
2018-05-03T19:19:18.943Z,40.10
2018-05-03T19:24:23.007Z,40.50
2018-05-03T19:29:26.413Z,40.80
2018-05-03T19:34:29.701Z,41.40
2018-05-03T19:39:33.020Z,41.30
2018-05-03T19:44:36.343Z,41.50
2018-05-03T19:49:39.604Z,41.70
2018-05-03T19:54:42.907Z,42.50
2018-05-03T19:59:46.996Z,42.60
2018-05-03T20:04:50.288Z,44.00
2018-05-03T20:09:53.599Z,45.50
2018-05-03T20:14:56.884Z,46.50
2018-05-03T20:20:00.412Z,46.20
2018-05-03T20:25:03.668Z,44.50
2018-05-03T20:30:07.700Z,45.60
2018-05-03T20:35:11.755Z,45.30
2018-05-03T20:40:15.952Z,45.20
2018-05-03T20:45:19.218Z,45.50
2018-05-03T20:50:22.470Z,46.20
2018-05-03T20:55:28.051Z,48.80
2018-05-03T21:00:32.163Z,48.80
2018-05-03T21:05:36.195Z,47.60
2018-05-03T21:10:40.358Z,48.10
2018-05-03T21:15:43.715Z,48.10
2018-05-03T21:20:47.766Z,48.70
2018-05-03T21:25:51.040Z,48.10
2018-05-03T21:30:54.320Z,48.70
2018-05-03T21:36:01.683Z,48.60
2018-05-03T21:41:05.974Z,49.60
2018-05-03T21:46:09.315Z,49.50
2018-05-03T21:51:12.630Z,49.40
2018-05-03T21:56:15.932Z,48.70
2018-05-03T22:01:19.972Z,49.00
2018-05-03T22:06:23.999Z,49.70
2018-05-03T22:11:27.324Z,49.60
2018-05-03T22:16:30.624Z,48.60
2018-05-03T22:21:33.893Z,50.10
2018-05-03T22:26:37.151Z,50.50
2018-05-03T22:31:40.403Z,50.40
2018-05-03T22:36:43.672Z,49.40
2018-05-03T22:41:46.945Z,50.00
2018-05-03T22:46:50.216Z,49.70
2018-05-03T22:51:54.192Z,50.10
2018-05-03T22:56:57.470Z,50.20
2018-05-03T23:02:00.751Z,51.10
2018-05-03T23:07:04.023Z,50.90
2018-05-03T23:12:07.307Z,51.20
2018-05-03T23:17:10.572Z,51.80
2018-05-03T23:22:14.655Z,57.60
2018-05-03T23:27:17.929Z,56.50
2018-05-03T23:32:21.183Z,56.90
2018-05-03T23:37:24.448Z,57.40
2018-05-03T23:42:27.711Z,56.70
2018-05-03T23:47:30.975Z,56.80
2018-05-03T23:52:34.240Z,54.80
2018-05-03T23:57:37.499Z,55.30
